Pulga, California
Current Conditions -  °F | °C
As of 9:53 PM on Friday 24 Oct 2014 (Local Time) from KOVE Reporting Station
Clear Clear  
Wind Chill: 67°   Ceiling: Unl
Heat Index: 67°   Visibility: 10mi
Dew Point: 50°   Wind: 10mph
Humidity: 54%   Direction: 150°SSE
Pressure: 29.87"   Gusts: NA
Location:  39.5324°N, 121.648°W
Report Text: KOVE 250453Z AUTO 15009KT 10SM CLR 19/10 A2987 RMK AO2 SLP117 T01940100
Loading
Personal Weather Stations






























Interactive Weather Map
Tropical Storm Tracking
New forecast layout! Learn more

10-Day Weather Forecast

Advertisements
Track Severe Weather on mobile